sensor_id;sensor_type;location;lat;lon;timestamp;P1;durP1;ratioP1;P2;durP2;ratioP2
23768;SDS011;12064;50.890;5.424;2023-04-30T00:03:59;3.00;;;2.80;;
23768;SDS011;12064;50.890;5.424;2023-04-30T00:12:50;2.95;;;2.75;;
23768;SDS011;12064;50.890;5.424;2023-04-30T00:21:40;3.85;;;2.92;;
23768;SDS011;12064;50.890;5.424;2023-04-30T00:30:31;3.58;;;3.28;;
23768;SDS011;12064;50.890;5.424;2023-04-30T00:39:22;3.42;;;3.13;;
23768;SDS011;12064;50.890;5.424;2023-04-30T00:48:12;3.20;;;2.90;;
23768;SDS011;12064;50.890;5.424;2023-04-30T00:57:04;3.42;;;2.83;;
23768;SDS011;12064;50.890;5.424;2023-04-30T01:05:56;3.90;;;2.83;;
23768;SDS011;12064;50.890;5.424;2023-04-30T01:23:46;3.00;;;2.70;;
23768;SDS011;12064;50.890;5.424;2023-04-30T01:32:57;2.85;;;2.47;;
23768;SDS011;12064;50.890;5.424;2023-04-30T01:51:42;2.78;;;2.58;;
23768;SDS011;12064;50.890;5.424;2023-04-30T02:00:32;2.78;;;2.58;;
23768;SDS011;12064;50.890;5.424;2023-04-30T02:09:23;3.22;;;2.70;;
23768;SDS011;12064;50.890;5.424;2023-04-30T02:18:14;2.78;;;2.58;;
23768;SDS011;12064;50.890;5.424;2023-04-30T02:27:05;3.13;;;2.83;;
23768;SDS011;12064;50.890;5.424;2023-04-30T02:35:57;2.72;;;2.53;;
23768;SDS011;12064;50.890;5.424;2023-04-30T02:44:49;2.92;;;2.70;;
23768;SDS011;12064;50.890;5.424;2023-04-30T02:53:40;3.38;;;2.58;;
23768;SDS011;12064;50.890;5.424;2023-04-30T03:02:30;2.93;;;2.63;;
23768;SDS011;12064;50.890;5.424;2023-04-30T03:11:21;2.95;;;2.65;;
23768;SDS011;12064;50.890;5.424;2023-04-30T03:20:12;3.08;;;2.55;;
23768;SDS011;12064;50.890;5.424;2023-04-30T03:29:03;3.55;;;2.40;;
23768;SDS011;12064;50.890;5.424;2023-04-30T03:37:54;2.75;;;2.50;;
23768;SDS011;12064;50.890;5.424;2023-04-30T03:46:44;4.80;;;2.55;;
23768;SDS011;12064;50.890;5.424;2023-04-30T03:55:35;3.00;;;2.50;;
23768;SDS011;12064;50.890;5.424;2023-04-30T04:04:26;3.58;;;2.60;;
23768;SDS011;12064;50.890;5.424;2023-04-30T04:13:17;2.60;;;2.40;;
23768;SDS011;12064;50.890;5.424;2023-04-30T04:22:08;4.13;;;2.42;;
23768;SDS011;12064;50.890;5.424;2023-04-30T04:30:59;3.15;;;2.70;;
23768;SDS011;12064;50.890;5.424;2023-04-30T04:39:49;2.83;;;2.63;;
23768;SDS011;12064;50.890;5.424;2023-04-30T04:48:40;2.67;;;2.40;;
23768;SDS011;12064;50.890;5.424;2023-04-30T04:57:31;3.97;;;2.53;;
23768;SDS011;12064;50.890;5.424;2023-04-30T05:06:22;4.28;;;2.78;;
23768;SDS011;12064;50.890;5.424;2023-04-30T05:15:13;3.17;;;2.95;;
23768;SDS011;12064;50.890;5.424;2023-04-30T05:24:04;3.50;;;3.20;;
23768;SDS011;12064;50.890;5.424;2023-04-30T05:32:55;4.28;;;3.47;;
23768;SDS011;12064;50.890;5.424;2023-04-30T05:41:46;4.32;;;3.92;;
23768;SDS011;12064;50.890;5.424;2023-04-30T05:50:37;6.68;;;5.47;;
23768;SDS011;12064;50.890;5.424;2023-04-30T05:59:27;20.00;;;14.45;;
23768;SDS011;12064;50.890;5.424;2023-04-30T06:08:18;14.60;;;13.10;;
23768;SDS011;12064;50.890;5.424;2023-04-30T06:17:12;15.20;;;12.93;;
23768;SDS011;12064;50.890;5.424;2023-04-30T06:26:03;7.97;;;7.10;;
23768;SDS011;12064;50.890;5.424;2023-04-30T06:34:54;9.70;;;6.18;;
23768;SDS011;12064;50.890;5.424;2023-04-30T06:43:44;7.03;;;5.45;;
23768;SDS011;12064;50.890;5.424;2023-04-30T06:52:35;5.28;;;4.25;;
23768;SDS011;12064;50.890;5.424;2023-04-30T07:01:27;4.53;;;3.90;;
23768;SDS011;12064;50.890;5.424;2023-04-30T07:10:18;6.18;;;3.70;;
23768;SDS011;12064;50.890;5.424;2023-04-30T07:19:08;5.97;;;3.63;;
23768;SDS011;12064;50.890;5.424;2023-04-30T07:27:59;6.20;;;3.40;;
23768;SDS011;12064;50.890;5.424;2023-04-30T07:36:50;3.97;;;3.17;;
23768;SDS011;12064;50.890;5.424;2023-04-30T07:45:41;3.70;;;3.30;;
23768;SDS011;12064;50.890;5.424;2023-04-30T07:54:32;4.13;;;2.75;;
23768;SDS011;12064;50.890;5.424;2023-04-30T08:03:25;3.72;;;2.55;;
23768;SDS011;12064;50.890;5.424;2023-04-30T08:12:16;4.15;;;2.78;;
23768;SDS011;12064;50.890;5.424;2023-04-30T08:21:07;2.75;;;2.55;;
23768;SDS011;12064;50.890;5.424;2023-04-30T08:29:58;3.65;;;2.90;;
23768;SDS011;12064;50.890;5.424;2023-04-30T08:38:49;3.13;;;2.83;;
23768;SDS011;12064;50.890;5.424;2023-04-30T08:47:40;3.15;;;2.90;;
23768;SDS011;12064;50.890;5.424;2023-04-30T08:56:32;2.88;;;2.17;;
23768;SDS011;12064;50.890;5.424;2023-04-30T09:05:24;2.97;;;2.53;;
23768;SDS011;12064;50.890;5.424;2023-04-30T09:14:21;3.30;;;2.63;;
23768;SDS011;12064;50.890;5.424;2023-04-30T09:23:14;2.90;;;2.60;;
23768;SDS011;12064;50.890;5.424;2023-04-30T09:32:06;2.40;;;2.20;;
23768;SDS011;12064;50.890;5.424;2023-04-30T09:40:58;2.67;;;2.40;;
23768;SDS011;12064;50.890;5.424;2023-04-30T09:49:50;5.70;;;3.80;;
23768;SDS011;12064;50.890;5.424;2023-04-30T09:58:42;5.50;;;3.22;;
23768;SDS011;12064;50.890;5.424;2023-04-30T10:07:38;2.75;;;2.55;;
23768;SDS011;12064;50.890;5.424;2023-04-30T10:16:39;2.88;;;2.35;;
23768;SDS011;12064;50.890;5.424;2023-04-30T10:25:39;2.75;;;2.47;;
23768;SDS011;12064;50.890;5.424;2023-04-30T10:34:35;3.45;;;2.40;;
23768;SDS011;12064;50.890;5.424;2023-04-30T10:43:32;3.92;;;2.30;;
23768;SDS011;12064;50.890;5.424;2023-04-30T10:52:26;2.55;;;2.35;;
23768;SDS011;12064;50.890;5.424;2023-04-30T11:01:18;2.50;;;2.30;;
23768;SDS011;12064;50.890;5.424;2023-04-30T11:10:09;2.50;;;2.30;;
23768;SDS011;12064;50.890;5.424;2023-04-30T11:19:09;2.33;;;2.13;;
23768;SDS011;12064;50.890;5.424;2023-04-30T11:28:00;2.50;;;2.38;;
23768;SDS011;12064;50.890;5.424;2023-04-30T11:36:53;2.28;;;2.13;;
23768;SDS011;12064;50.890;5.424;2023-04-30T11:55:15;3.50;;;2.17;;
23768;SDS011;12064;50.890;5.424;2023-04-30T12:04:07;3.42;;;2.13;;
23768;SDS011;12064;50.890;5.424;2023-04-30T12:12:59;2.67;;;2.28;;
23768;SDS011;12064;50.890;5.424;2023-04-30T12:21:49;2.88;;;2.05;;
23768;SDS011;12064;50.890;5.424;2023-04-30T12:30:43;2.72;;;2.53;;
23768;SDS011;12064;50.890;5.424;2023-04-30T12:39:35;2.17;;;1.98;;
23768;SDS011;12064;50.890;5.424;2023-04-30T12:48:26;2.42;;;2.20;;
23768;SDS011;12064;50.890;5.424;2023-04-30T12:57:17;4.60;;;2.22;;
23768;SDS011;12064;50.890;5.424;2023-04-30T13:06:07;2.78;;;2.38;;
23768;SDS011;12064;50.890;5.424;2023-04-30T13:14:59;2.40;;;2.20;;
23768;SDS011;12064;50.890;5.424;2023-04-30T13:23:50;2.70;;;2.15;;
23768;SDS011;12064;50.890;5.424;2023-04-30T13:32:40;2.60;;;2.30;;
23768;SDS011;12064;50.890;5.424;2023-04-30T13:41:32;6.13;;;2.55;;
23768;SDS011;12064;50.890;5.424;2023-04-30T13:50:22;2.00;;;1.90;;
23768;SDS011;12064;50.890;5.424;2023-04-30T13:59:14;2.40;;;2.20;;
23768;SDS011;12064;50.890;5.424;2023-04-30T14:08:04;2.00;;;1.80;;
23768;SDS011;12064;50.890;5.424;2023-04-30T14:16:55;2.92;;;1.80;;
23768;SDS011;12064;50.890;5.424;2023-04-30T14:25:46;2.20;;;1.90;;
23768;SDS011;12064;50.890;5.424;2023-04-30T14:34:37;2.10;;;1.90;;
23768;SDS011;12064;50.890;5.424;2023-04-30T14:43:28;2.00;;;1.77;;
23768;SDS011;12064;50.890;5.424;2023-04-30T14:52:18;2.30;;;1.80;;
23768;SDS011;12064;50.890;5.424;2023-04-30T15:01:12;1.95;;;1.85;;
23768;SDS011;12064;50.890;5.424;2023-04-30T15:10:03;1.80;;;1.70;;
23768;SDS011;12064;50.890;5.424;2023-04-30T15:18:55;1.90;;;1.80;;
23768;SDS011;12064;50.890;5.424;2023-04-30T15:27:46;2.72;;;2.13;;
23768;SDS011;12064;50.890;5.424;2023-04-30T15:36:37;2.22;;;1.95;;
23768;SDS011;12064;50.890;5.424;2023-04-30T15:45:28;4.15;;;2.00;;
23768;SDS011;12064;50.890;5.424;2023-04-30T15:54:19;1.90;;;1.80;;
23768;SDS011;12064;50.890;5.424;2023-04-30T16:03:10;3.35;;;1.80;;
23768;SDS011;12064;50.890;5.424;2023-04-30T16:12:01;3.28;;;2.17;;
23768;SDS011;12064;50.890;5.424;2023-04-30T16:20:51;4.95;;;2.30;;
23768;SDS011;12064;50.890;5.424;2023-04-30T16:29:42;3.65;;;2.20;;
23768;SDS011;12064;50.890;5.424;2023-04-30T16:38:33;2.55;;;2.10;;
23768;SDS011;12064;50.890;5.424;2023-04-30T16:47:24;3.33;;;1.80;;
23768;SDS011;12064;50.890;5.424;2023-04-30T16:56:16;2.35;;;1.92;;
23768;SDS011;12064;50.890;5.424;2023-04-30T17:05:08;3.22;;;1.90;;
23768;SDS011;12064;50.890;5.424;2023-04-30T17:14:00;2.60;;;2.05;;
23768;SDS011;12064;50.890;5.424;2023-04-30T17:22:51;2.58;;;1.83;;
23768;SDS011;12064;50.890;5.424;2023-04-30T17:31:42;2.20;;;2.00;;
23768;SDS011;12064;50.890;5.424;2023-04-30T17:40:33;3.28;;;1.90;;
23768;SDS011;12064;50.890;5.424;2023-04-30T17:49:23;2.13;;;1.93;;
23768;SDS011;12064;50.890;5.424;2023-04-30T17:58:15;1.90;;;1.70;;
23768;SDS011;12064;50.890;5.424;2023-04-30T18:07:06;1.73;;;1.63;;
23768;SDS011;12064;50.890;5.424;2023-04-30T18:15:57;2.85;;;1.90;;
23768;SDS011;12064;50.890;5.424;2023-04-30T18:24:47;2.17;;;1.85;;
23768;SDS011;12064;50.890;5.424;2023-04-30T18:33:38;1.80;;;1.70;;
23768;SDS011;12064;50.890;5.424;2023-04-30T18:42:29;1.88;;;1.77;;
23768;SDS011;12064;50.890;5.424;2023-04-30T18:51:20;1.80;;;1.70;;
23768;SDS011;12064;50.890;5.424;2023-04-30T19:00:11;2.47;;;1.85;;
23768;SDS011;12064;50.890;5.424;2023-04-30T19:09:03;1.92;;;1.73;;
23768;SDS011;12064;50.890;5.424;2023-04-30T19:17:54;3.17;;;2.00;;
23768;SDS011;12064;50.890;5.424;2023-04-30T19:26:46;2.20;;;2.05;;
23768;SDS011;12064;50.890;5.424;2023-04-30T19:35:37;2.17;;;1.98;;
23768;SDS011;12064;50.890;5.424;2023-04-30T19:44:28;2.05;;;1.95;;
23768;SDS011;12064;50.890;5.424;2023-04-30T19:53:20;2.13;;;2.00;;
23768;SDS011;12064;50.890;5.424;2023-04-30T20:02:11;2.10;;;1.90;;
23768;SDS011;12064;50.890;5.424;2023-04-30T20:11:02;2.30;;;2.20;;
23768;SDS011;12064;50.890;5.424;2023-04-30T20:19:53;2.25;;;2.08;;
23768;SDS011;12064;50.890;5.424;2023-04-30T20:28:44;2.40;;;2.20;;
23768;SDS011;12064;50.890;5.424;2023-04-30T20:37:35;2.87;;;2.30;;
23768;SDS011;12064;50.890;5.424;2023-04-30T20:46:26;2.40;;;2.20;;
23768;SDS011;12064;50.890;5.424;2023-04-30T20:55:18;1.95;;;1.85;;
23768;SDS011;12064;50.890;5.424;2023-04-30T21:04:08;2.50;;;2.28;;
23768;SDS011;12064;50.890;5.424;2023-04-30T21:13:00;2.53;;;1.90;;
23768;SDS011;12064;50.890;5.424;2023-04-30T21:21:51;2.83;;;2.28;;
23768;SDS011;12064;50.890;5.424;2023-04-30T21:30:42;2.70;;;2.20;;
23768;SDS011;12064;50.890;5.424;2023-04-30T21:39:33;2.38;;;1.92;;
23768;SDS011;12064;50.890;5.424;2023-04-30T21:48:24;2.97;;;2.08;;
23768;SDS011;12064;50.890;5.424;2023-04-30T21:57:15;2.47;;;2.22;;
23768;SDS011;12064;50.890;5.424;2023-04-30T22:06:06;2.60;;;2.30;;
23768;SDS011;12064;50.890;5.424;2023-04-30T22:14:59;4.15;;;2.20;;
23768;SDS011;12064;50.890;5.424;2023-04-30T22:23:51;2.00;;;1.88;;
23768;SDS011;12064;50.890;5.424;2023-04-30T22:32:41;2.03;;;1.90;;
23768;SDS011;12064;50.890;5.424;2023-04-30T22:41:32;2.20;;;2.00;;
23768;SDS011;12064;50.890;5.424;2023-04-30T22:50:23;2.63;;;2.10;;
23768;SDS011;12064;50.890;5.424;2023-04-30T22:59:14;2.72;;;2.03;;
23768;SDS011;12064;50.890;5.424;2023-04-30T23:08:05;1.90;;;1.80;;
23768;SDS011;12064;50.890;5.424;2023-04-30T23:16:56;2.65;;;2.00;;
23768;SDS011;12064;50.890;5.424;2023-04-30T23:25:46;2.10;;;2.00;;
23768;SDS011;12064;50.890;5.424;2023-04-30T23:34:37;2.43;;;2.10;;
23768;SDS011;12064;50.890;5.424;2023-04-30T23:43:28;1.92;;;1.83;;
23768;SDS011;12064;50.890;5.424;2023-04-30T23:52:20;2.38;;;1.77;;
